createdAt,value
2019-05-14T00:02:03.946Z,12.25
2019-05-14T00:04:33.051Z,12.28
2019-05-14T00:07:02.099Z,12.23
2019-05-14T00:09:32.168Z,12.20
2019-05-14T00:12:04.406Z,12.17
2019-05-14T00:14:39.666Z,12.08
2019-05-14T00:17:05.864Z,12.00
2019-05-14T00:19:37.442Z,12.01
2019-05-14T00:22:06.582Z,11.77
2019-05-14T00:24:35.641Z,12.05
2019-05-14T00:27:04.699Z,12.10
2019-05-14T00:29:33.781Z,12.04
2019-05-14T00:32:02.792Z,12.16
2019-05-14T00:34:31.920Z,12.11
2019-05-14T00:37:02.080Z,12.12
2019-05-14T00:39:32.102Z,11.59
2019-05-14T00:42:01.766Z,11.85
2019-05-14T00:44:32.346Z,12.07
2019-05-14T00:47:03.082Z,11.97
2019-05-14T00:49:32.744Z,11.81
2019-05-14T00:52:03.968Z,11.72
2019-05-14T00:54:33.126Z,11.73
2019-05-14T00:57:02.488Z,11.76
2019-05-14T00:59:32.174Z,11.73
2019-05-14T01:02:02.954Z,11.72
2019-05-14T01:04:34.600Z,11.66
2019-05-14T01:07:03.655Z,11.65
2019-05-14T01:09:32.690Z,11.57
2019-05-14T01:12:02.025Z,11.58
2019-05-14T01:14:34.177Z,11.51
2019-05-14T01:17:04.806Z,11.58
2019-05-14T01:19:33.939Z,11.75
2019-05-14T01:22:03.406Z,11.38
2019-05-14T01:24:36.550Z,11.71
2019-05-14T01:27:08.507Z,11.25
2019-05-14T01:29:44.928Z,11.32
2019-05-14T01:32:18.635Z,10.79
2019-05-14T01:34:48.855Z,11.28
2019-05-14T01:37:21.902Z,11.26
2019-05-14T01:39:51.987Z,10.93
2019-05-14T01:42:24.295Z,11.05
2019-05-14T01:45:02.646Z,11.22
2019-05-14T01:47:33.280Z,11.58
2019-05-14T01:50:02.342Z,11.63
2019-05-14T01:52:32.579Z,11.31
2019-05-14T01:55:07.763Z,11.38
2019-05-14T01:57:36.940Z,11.28
2019-05-14T02:00:08.259Z,10.78
2019-05-14T02:02:37.319Z,11.08
2019-05-14T02:05:06.698Z,10.36
2019-05-14T02:07:35.803Z,10.88
2019-05-14T02:10:06.040Z,11.07
2019-05-14T02:12:51.590Z,9.76
2019-05-14T02:15:36.366Z,10.60
2019-05-14T02:17:53.951Z,10.78
2019-05-14T02:20:23.069Z,11.21
2019-05-14T02:22:54.666Z,11.37
2019-05-14T02:25:23.704Z,11.36
2019-05-14T02:27:52.777Z,10.80
2019-05-14T02:30:28.481Z,11.23
2019-05-14T02:33:01.837Z,10.97
2019-05-14T02:35:30.985Z,11.09
2019-05-14T02:38:00.036Z,11.16
2019-05-14T02:40:30.457Z,11.11
2019-05-14T02:43:03.625Z,10.49
2019-05-14T02:45:34.911Z,10.80
2019-05-14T02:48:04.958Z,10.94
2019-05-14T02:50:39.437Z,10.79
2019-05-14T02:53:10.301Z,10.92
2019-05-14T02:55:41.749Z,10.61
2019-05-14T02:58:13.854Z,10.80
2019-05-14T03:00:44.029Z,10.35
2019-05-14T03:03:19.022Z,10.72
2019-05-14T03:05:50.585Z,10.64
2019-05-14T03:08:24.737Z,10.71
2019-05-14T03:10:53.844Z,10.23
2019-05-14T03:13:22.865Z,8.39
2019-05-14T03:15:53.479Z,9.65
2019-05-14T03:18:22.715Z,9.60
2019-05-14T03:20:56.106Z,9.51
2019-05-14T03:23:25.188Z,9.69
2019-05-14T03:25:55.491Z,9.70
2019-05-14T03:28:26.352Z,9.71
2019-05-14T03:31:01.976Z,9.44
2019-05-14T03:33:32.367Z,9.28
2019-05-14T03:36:07.131Z,9.36
2019-05-14T03:38:31.468Z,9.64
2019-05-14T03:41:09.099Z,9.81
2019-05-14T03:43:39.109Z,9.93
2019-05-14T03:46:12.579Z,9.84
2019-05-14T03:48:41.757Z,9.57
2019-05-14T03:51:10.769Z,9.96
2019-05-14T03:53:55.150Z,10.35
2019-05-14T03:56:10.886Z,10.47
2019-05-14T03:58:40.100Z,10.51
2019-05-14T04:01:11.033Z,10.58
2019-05-14T04:03:40.315Z,10.55
2019-05-14T04:06:14.802Z,10.45
2019-05-14T04:08:44.328Z,10.22
2019-05-14T04:11:15.426Z,10.23
2019-05-14T04:13:44.803Z,10.19
2019-05-14T04:16:15.270Z,10.08
2019-05-14T04:18:50.506Z,10.21
2019-05-14T04:21:29.793Z,10.34
2019-05-14T04:23:59.782Z,11.61
2019-05-14T04:26:31.108Z,12.83
2019-05-14T04:29:01.160Z,13.06
2019-05-14T04:31:32.951Z,13.18
2019-05-14T04:34:10.535Z,13.01
2019-05-14T04:36:39.343Z,12.47
2019-05-14T04:39:09.560Z,11.71
2019-05-14T04:41:40.587Z,11.55
2019-05-14T04:44:14.130Z,11.32
2019-05-14T04:46:49.134Z,11.38
2019-05-14T04:49:20.244Z,11.19
2019-05-14T04:51:50.470Z,11.13
2019-05-14T04:54:19.806Z,11.06
2019-05-14T04:56:54.580Z,11.03
2019-05-14T04:59:24.934Z,10.62
2019-05-14T05:01:59.734Z,11.03
2019-05-14T05:04:29.916Z,11.25
2019-05-14T05:07:03.649Z,11.27
2019-05-14T05:09:35.525Z,11.33
2019-05-14T05:12:09.926Z,11.35
2019-05-14T05:14:39.294Z,11.63
2019-05-14T05:17:19.768Z,11.48
2019-05-14T05:19:54.259Z,12.03
2019-05-14T05:22:23.375Z,6.32
2019-05-14T05:24:52.460Z,12.02
2019-05-14T05:27:24.744Z,12.23
2019-05-14T05:29:58.958Z,12.37
2019-05-14T05:32:28.564Z,12.73
2019-05-14T05:35:05.441Z,12.85
2019-05-14T05:37:38.301Z,12.87
2019-05-14T05:40:05.763Z,12.48
2019-05-14T05:42:38.548Z,12.38
2019-05-14T05:45:08.007Z,12.15
2019-05-14T05:47:54.339Z,12.45
2019-05-14T05:50:19.325Z,12.35
2019-05-14T05:52:53.613Z,11.96
2019-05-14T05:55:21.071Z,12.08
2019-05-14T05:57:53.529Z,12.36
2019-05-14T06:00:39.436Z,12.50
2019-05-14T06:03:10.837Z,12.15
2019-05-14T06:05:49.083Z,12.27
2019-05-14T06:08:28.189Z,12.03
2019-05-14T06:10:59.398Z,12.39
2019-05-14T06:13:29.267Z,12.16
2019-05-14T06:16:13.616Z,12.07
2019-05-14T06:18:43.776Z,12.05
2019-05-14T06:21:14.037Z,12.07
2019-05-14T06:23:44.090Z,12.18
2019-05-14T06:26:19.093Z,12.26
2019-05-14T06:28:51.424Z,12.15
2019-05-14T06:31:20.914Z,12.37
2019-05-14T06:33:50.024Z,12.56
2019-05-14T06:36:20.845Z,12.49
2019-05-14T06:38:53.858Z,12.63
2019-05-14T06:41:33.545Z,12.53
2019-05-14T06:44:02.680Z,12.45
2019-05-14T06:46:31.834Z,12.34
2019-05-14T06:49:01.512Z,12.38
2019-05-14T06:51:31.368Z,12.20
2019-05-14T06:54:00.680Z,12.11
2019-05-14T06:56:30.789Z,11.94
2019-05-14T06:58:59.927Z,12.11
2019-05-14T07:01:30.540Z,12.11
2019-05-14T07:04:02.619Z,12.33
2019-05-14T07:06:32.125Z,4.21
2019-05-14T07:09:03.107Z,12.45
2019-05-14T07:11:32.371Z,12.53
2019-05-14T07:14:04.272Z,12.66
2019-05-14T07:16:33.468Z,12.66
2019-05-14T07:19:02.870Z,12.74
2019-05-14T07:21:32.042Z,12.65
2019-05-14T07:24:01.174Z,12.75
2019-05-14T07:26:30.293Z,10.85
2019-05-14T07:28:59.436Z,12.81
2019-05-14T07:31:29.238Z,12.43
2019-05-14T07:33:58.680Z,12.56
2019-05-14T07:36:29.556Z,12.80
2019-05-14T07:39:00.290Z,12.99
2019-05-14T07:41:29.734Z,12.60
2019-05-14T07:44:00.124Z,12.38
2019-05-14T07:46:30.619Z,12.13
2019-05-14T07:49:11.811Z,11.95
2019-05-14T07:51:44.334Z,12.10
2019-05-14T07:54:13.186Z,12.60
2019-05-14T07:56:50.961Z,7.60
2019-05-14T07:59:22.661Z,12.88
2019-05-14T08:01:55.667Z,12.88
2019-05-14T08:04:24.236Z,12.85
2019-05-14T08:06:53.328Z,12.87
2019-05-14T08:09:22.425Z,13.06
2019-05-14T08:11:51.742Z,13.10
2019-05-14T08:14:22.026Z,13.22
2019-05-14T08:16:53.584Z,13.30
2019-05-14T08:19:27.089Z,13.46
2019-05-14T08:21:58.626Z,13.11
2019-05-14T08:24:30.058Z,13.53
2019-05-14T08:27:00.811Z,13.71
2019-05-14T08:29:29.896Z,13.47
2019-05-14T08:31:58.966Z,13.06
2019-05-14T08:34:31.790Z,13.74
2019-05-14T08:36:58.993Z,13.89
2019-05-14T08:39:33.937Z,13.80
2019-05-14T08:42:18.717Z,14.04
2019-05-14T08:44:51.390Z,13.98
2019-05-14T08:47:22.835Z,13.92
2019-05-14T08:49:51.943Z,14.06
2019-05-14T08:52:21.298Z,13.80
2019-05-14T08:55:05.376Z,13.76
2019-05-14T08:57:24.038Z,13.50
2019-05-14T08:59:53.371Z,13.53
2019-05-14T09:02:22.451Z,13.43
2019-05-14T09:05:02.789Z,13.78
2019-05-14T09:07:30.167Z,13.90
2019-05-14T09:10:03.104Z,14.31
2019-05-14T09:12:32.124Z,13.77
2019-05-14T09:15:01.217Z,13.47
2019-05-14T09:17:30.344Z,13.48
2019-05-14T09:20:06.757Z,13.65
2019-05-14T09:22:39.903Z,13.82
2019-05-14T09:25:12.175Z,14.22
2019-05-14T09:27:44.403Z,13.94
2019-05-14T09:30:18.517Z,14.02
2019-05-14T09:32:49.321Z,14.09
2019-05-14T09:35:18.783Z,14.50
2019-05-14T09:37:51.341Z,14.66
2019-05-14T09:40:24.078Z,14.13
2019-05-14T09:42:53.846Z,14.39
2019-05-14T09:45:22.910Z,14.26
2019-05-14T09:47:51.995Z,14.39
2019-05-14T09:50:23.822Z,14.40
2019-05-14T09:52:52.957Z,14.36
2019-05-14T09:55:22.405Z,14.11
2019-05-14T09:57:54.092Z,13.86
2019-05-14T10:00:23.226Z,13.48
2019-05-14T10:02:52.783Z,13.65
2019-05-14T10:05:21.842Z,13.76
2019-05-14T10:07:53.867Z,13.92
2019-05-14T10:10:24.694Z,13.86
2019-05-14T10:13:00.337Z,13.98
2019-05-14T10:18:23.877Z,14.69
2019-05-14T10:20:54.772Z,14.01
2019-05-14T10:23:23.818Z,13.86
2019-05-14T10:25:52.917Z,14.19
2019-05-14T10:28:23.391Z,14.29
2019-05-14T10:30:59.447Z,14.78
2019-05-14T10:33:31.062Z,14.79
2019-05-14T10:36:00.121Z,15.63
2019-05-14T10:38:29.755Z,15.44
2019-05-14T10:41:00.754Z,14.74
2019-05-14T10:43:31.517Z,15.03
2019-05-14T10:46:01.392Z,14.84
2019-05-14T10:48:31.619Z,14.49
2019-05-14T10:51:03.601Z,14.53
2019-05-14T10:53:34.568Z,15.29
2019-05-14T10:56:03.693Z,15.32
2019-05-14T10:58:41.611Z,14.99
2019-05-14T11:01:22.352Z,14.97
2019-05-14T11:03:56.901Z,14.69
2019-05-14T11:06:29.094Z,14.84
2019-05-14T11:09:09.114Z,15.37
2019-05-14T11:11:33.861Z,15.26
2019-05-14T11:14:03.337Z,15.73
2019-05-14T11:16:32.857Z,15.25
2019-05-14T11:19:05.133Z,15.64
2019-05-14T11:21:34.220Z,14.96
2019-05-14T11:24:03.325Z,14.96
2019-05-14T11:26:33.889Z,15.21
2019-05-14T11:29:04.708Z,15.28
2019-05-14T11:31:34.558Z,15.46
2019-05-14T11:34:08.294Z,15.72
2019-05-14T11:36:38.914Z,15.92
2019-05-14T11:39:29.053Z,15.36
2019-05-14T11:42:00.692Z,15.14
2019-05-14T11:44:30.098Z,15.46
2019-05-14T11:47:02.677Z,14.71
2019-05-14T11:49:31.263Z,15.52
2019-05-14T11:52:07.725Z,15.58
2019-05-14T11:54:35.531Z,15.52
2019-05-14T11:57:04.761Z,15.57
2019-05-14T11:59:39.107Z,16.04
2019-05-14T12:02:09.810Z,16.30
2019-05-14T12:04:41.844Z,14.02
2019-05-14T12:07:18.626Z,15.39
2019-05-14T12:10:05.978Z,14.61
2019-05-14T12:12:36.839Z,14.50
2019-05-14T12:15:25.595Z,15.15
2019-05-14T12:17:54.741Z,15.16
2019-05-14T12:20:23.969Z,15.42
2019-05-14T12:22:54.104Z,14.78
2019-05-14T12:25:23.220Z,15.03
2019-05-14T12:27:52.388Z,15.35
2019-05-14T12:30:21.764Z,14.95
2019-05-14T12:32:55.466Z,14.92
2019-05-14T12:35:29.255Z,15.34
2019-05-14T12:38:06.074Z,15.38
2019-05-14T12:40:38.367Z,15.77
2019-05-14T12:43:09.624Z,15.65
2019-05-14T12:45:43.236Z,14.74
2019-05-14T12:48:18.738Z,14.40
2019-05-14T12:50:48.917Z,14.64
2019-05-14T12:53:21.631Z,14.73
2019-05-14T12:55:50.979Z,15.02
2019-05-14T12:58:21.216Z,14.48
2019-05-14T13:00:50.287Z,15.08
2019-05-14T13:03:21.187Z,14.77
2019-05-14T13:05:50.236Z,16.51
2019-05-14T13:08:20.414Z,16.60
2019-05-14T13:10:49.473Z,16.68
2019-05-14T13:13:19.932Z,15.89
2019-05-14T13:16:04.273Z,15.05
2019-05-14T13:18:31.194Z,14.72
2019-05-14T13:21:00.338Z,13.05
2019-05-14T13:23:29.677Z,14.79
2019-05-14T13:26:00.178Z,14.65
2019-05-14T13:28:29.536Z,14.94
2019-05-14T13:30:59.688Z,15.46
2019-05-14T13:33:32.382Z,15.66
2019-05-14T13:36:01.437Z,16.15
2019-05-14T13:38:35.634Z,16.29
2019-05-14T13:41:08.622Z,15.69
2019-05-14T13:43:39.045Z,14.84
2019-05-14T13:46:15.207Z,14.47
2019-05-14T13:48:44.012Z,14.99
2019-05-14T13:51:29.421Z,15.28
2019-05-14T13:53:59.027Z,14.96
2019-05-14T13:56:28.441Z,14.80
2019-05-14T13:59:01.280Z,13.17
2019-05-14T14:01:32.462Z,15.07
2019-05-14T14:04:10.774Z,14.40
2019-05-14T14:06:39.349Z,14.52
2019-05-14T14:09:12.333Z,15.13
2019-05-14T14:11:39.872Z,15.67
2019-05-14T14:14:10.699Z,16.00
2019-05-14T14:16:41.211Z,15.69
2019-05-14T14:19:13.222Z,15.14
2019-05-14T14:21:43.186Z,14.74
2019-05-14T14:24:15.936Z,13.31
2019-05-14T14:26:44.981Z,14.63
2019-05-14T14:29:18.762Z,14.46
2019-05-14T14:32:02.160Z,14.86
2019-05-14T14:34:33.063Z,15.77
2019-05-14T14:37:08.845Z,15.91
2019-05-14T14:39:41.563Z,15.06
2019-05-14T14:42:14.155Z,14.95
2019-05-14T14:44:43.214Z,14.55
2019-05-14T14:47:15.805Z,15.28
2019-05-14T14:49:51.218Z,15.26
2019-05-14T14:52:19.981Z,15.85
2019-05-14T14:54:51.487Z,15.42
2019-05-14T14:57:23.509Z,15.03
2019-05-14T14:59:56.198Z,14.59
2019-05-14T15:02:28.847Z,14.16
2019-05-14T15:04:59.572Z,14.54
2019-05-14T15:07:30.457Z,15.65
2019-05-14T15:09:59.800Z,16.14
2019-05-14T15:12:35.836Z,16.42
2019-05-14T15:15:06.100Z,16.27
2019-05-14T15:17:38.944Z,16.11
2019-05-14T15:20:10.540Z,15.68
2019-05-14T15:22:39.394Z,14.82
2019-05-14T15:25:15.225Z,14.46
2019-05-14T15:27:49.081Z,14.10
2019-05-14T15:30:18.269Z,14.19
2019-05-14T15:32:51.506Z,14.80
2019-05-14T15:35:20.996Z,14.98
2019-05-14T15:37:50.490Z,15.16
2019-05-14T15:40:29.137Z,15.56
2019-05-14T15:43:04.996Z,15.38
2019-05-14T15:45:34.080Z,15.66
2019-05-14T15:48:04.057Z,15.58
2019-05-14T15:50:33.358Z,14.74
2019-05-14T15:53:03.609Z,14.05
2019-05-14T15:55:40.123Z,14.24
2019-05-14T15:58:09.246Z,14.31
2019-05-14T16:00:47.417Z,14.01
2019-05-14T16:03:18.668Z,14.41
2019-05-14T16:05:48.959Z,14.79
2019-05-14T16:08:22.687Z,15.45
2019-05-14T16:10:51.526Z,15.67
2019-05-14T16:13:21.299Z,15.96
2019-05-14T16:15:54.701Z,15.85
2019-05-14T16:18:23.771Z,15.18
2019-05-14T16:20:52.918Z,14.72
2019-05-14T16:26:09.910Z,14.57
2019-05-14T16:28:39.695Z,15.20
2019-05-14T16:31:09.268Z,15.53
2019-05-14T16:33:40.417Z,15.11
2019-05-14T16:36:11.009Z,15.38
2019-05-14T16:38:40.337Z,15.31
2019-05-14T16:41:09.436Z,14.98
2019-05-14T16:43:40.009Z,15.03
2019-05-14T16:46:14.465Z,14.29
2019-05-14T16:48:43.688Z,13.98
2019-05-14T16:51:13.848Z,14.13
2019-05-14T16:53:44.790Z,14.16
2019-05-14T16:56:14.003Z,14.66
2019-05-14T16:58:44.736Z,14.41
2019-05-14T17:01:13.944Z,13.96
2019-05-14T17:03:43.052Z,13.97
2019-05-14T17:06:12.087Z,14.17
2019-05-14T17:08:41.149Z,14.14
2019-05-14T17:11:13.805Z,14.11
2019-05-14T17:13:43.381Z,13.87
2019-05-14T17:16:13.215Z,13.89
2019-05-14T17:18:42.312Z,14.41
2019-05-14T17:21:11.456Z,14.27
2019-05-14T17:23:40.581Z,14.47
2019-05-14T17:26:10.752Z,14.30
2019-05-14T17:28:40.715Z,14.27
2019-05-14T17:31:10.066Z,13.92
2019-05-14T17:33:39.694Z,13.99
2019-05-14T17:36:09.858Z,13.97
2019-05-14T17:38:39.370Z,13.78
2019-05-14T17:41:09.802Z,13.73
2019-05-14T17:43:39.563Z,13.57
2019-05-14T17:46:09.739Z,13.69
2019-05-14T17:48:39.387Z,13.48
2019-05-14T17:51:09.452Z,13.60
2019-05-14T17:53:38.912Z,13.33
2019-05-14T17:56:08.619Z,13.31
2019-05-14T17:58:38.914Z,13.39
2019-05-14T18:01:09.796Z,13.04
2019-05-14T18:03:40.040Z,13.13
2019-05-14T18:06:13.288Z,13.28
2019-05-14T18:08:46.899Z,13.33
2019-05-14T18:11:18.949Z,13.27
2019-05-14T18:13:48.476Z,13.47
2019-05-14T18:16:19.350Z,13.14
2019-05-14T18:18:50.869Z,13.05
2019-05-14T18:21:20.009Z,13.30
2019-05-14T18:23:49.380Z,13.53
2019-05-14T18:26:19.201Z,13.00
2019-05-14T18:28:48.631Z,12.58
2019-05-14T18:31:21.255Z,12.86
2019-05-14T18:33:50.295Z,13.06
2019-05-14T18:36:21.403Z,12.70
2019-05-14T18:38:50.376Z,12.63
2019-05-14T18:41:19.546Z,12.96
2019-05-14T18:43:48.651Z,13.19
2019-05-14T18:46:19.407Z,13.01
2019-05-14T18:48:48.906Z,13.24
2019-05-14T18:51:19.722Z,13.24
2019-05-14T18:53:50.180Z,13.26
2019-05-14T18:56:24.191Z,13.18
2019-05-14T18:58:56.194Z,13.01
2019-05-14T19:01:41.878Z,13.21
2019-05-14T19:04:11.045Z,12.72
2019-05-14T19:06:40.293Z,12.65
2019-05-14T19:09:10.779Z,12.39
2019-05-14T19:11:42.178Z,12.59
2019-05-14T19:14:11.445Z,12.50
2019-05-14T19:16:43.719Z,12.47
2019-05-14T19:19:14.740Z,12.17
2019-05-14T19:21:45.691Z,12.34
2019-05-14T19:24:15.749Z,12.18
2019-05-14T19:26:44.951Z,12.36
2019-05-14T19:29:15.802Z,12.50
2019-05-14T19:31:48.086Z,12.46
2019-05-14T19:34:22.497Z,12.54
2019-05-14T19:36:55.336Z,12.21
2019-05-14T19:39:28.130Z,12.07
2019-05-14T19:41:56.926Z,12.13
2019-05-14T19:44:25.992Z,12.14
2019-05-14T19:46:55.201Z,11.97
2019-05-14T19:49:24.654Z,12.14
2019-05-14T19:51:54.382Z,12.18
2019-05-14T19:54:29.234Z,11.93
2019-05-14T19:57:00.927Z,11.88
2019-05-14T19:59:29.106Z,11.86
2019-05-14T20:02:00.984Z,11.99
2019-05-14T20:04:31.911Z,11.82
2019-05-14T20:07:01.745Z,11.98
2019-05-14T20:09:31.858Z,12.00
2019-05-14T20:12:00.933Z,12.11
2019-05-14T20:14:31.281Z,12.04
2019-05-14T20:17:03.574Z,12.00
2019-05-14T20:19:34.739Z,11.71
2019-05-14T20:22:08.327Z,11.37
2019-05-14T20:24:41.534Z,11.31
2019-05-14T20:27:12.295Z,11.48
2019-05-14T20:29:42.601Z,11.53
2019-05-14T20:32:11.703Z,11.30
2019-05-14T20:34:43.287Z,11.36
2019-05-14T20:37:12.354Z,11.37
2019-05-14T20:39:41.435Z,11.31
2019-05-14T20:42:10.771Z,11.32
2019-05-14T20:44:40.999Z,11.36
2019-05-14T20:47:13.416Z,11.41
2019-05-14T20:49:42.678Z,11.62
2019-05-14T20:52:11.723Z,11.56
2019-05-14T20:54:40.928Z,11.46
2019-05-14T20:57:23.552Z,11.49
2019-05-14T20:59:41.386Z,11.66
2019-05-14T21:02:13.333Z,11.41
2019-05-14T21:04:43.771Z,11.51
2019-05-14T21:07:14.075Z,11.35
2019-05-14T21:09:43.200Z,11.42
2019-05-14T21:12:14.116Z,11.43
2019-05-14T21:14:43.346Z,11.41
2019-05-14T21:17:12.374Z,11.17
2019-05-14T21:19:41.472Z,11.26
2019-05-14T21:22:10.547Z,11.19
2019-05-14T21:24:40.216Z,11.40
2019-05-14T21:27:11.339Z,11.50
2019-05-14T21:29:41.559Z,11.39
2019-05-14T21:32:13.652Z,11.28
2019-05-14T21:34:42.755Z,11.43
2019-05-14T21:37:11.848Z,11.39
2019-05-14T21:39:41.294Z,11.24
2019-05-14T21:42:11.928Z,11.27
2019-05-14T21:44:40.986Z,11.21
2019-05-14T21:47:10.058Z,11.30
2019-05-14T21:49:39.202Z,11.28
2019-05-14T21:52:09.436Z,11.21
2019-05-14T21:54:43.721Z,11.33
2019-05-14T21:57:15.752Z,11.23
2019-05-14T21:59:47.989Z,11.09
2019-05-14T22:02:24.788Z,11.14
2019-05-14T22:04:49.248Z,10.97
2019-05-14T22:07:18.596Z,10.88
2019-05-14T22:09:48.733Z,10.85
2019-05-14T22:12:20.393Z,10.79
2019-05-14T22:14:48.731Z,10.71
2019-05-14T22:17:17.931Z,2.40
2019-05-14T22:19:49.062Z,10.66
2019-05-14T22:22:20.908Z,10.69
2019-05-14T22:24:49.947Z,10.72
2019-05-14T22:27:19.059Z,10.78
2019-05-14T22:29:48.473Z,10.84
2019-05-14T22:32:19.209Z,10.86
2019-05-14T22:34:49.049Z,10.79
2019-05-14T22:37:22.733Z,10.72
2019-05-14T22:39:51.817Z,10.87
2019-05-14T22:42:21.695Z,10.92
2019-05-14T22:44:50.763Z,10.91
2019-05-14T22:47:23.795Z,10.84
2019-05-14T22:49:58.967Z,10.79
2019-05-14T22:52:31.218Z,10.80
2019-05-14T22:55:00.244Z,10.97
2019-05-14T22:57:32.294Z,10.86
2019-05-14T23:00:01.422Z,10.98
2019-05-14T23:02:32.928Z,10.96
2019-05-14T23:05:02.036Z,10.83
2019-05-14T23:07:31.183Z,10.71
2019-05-14T23:10:00.235Z,10.65
2019-05-14T23:12:31.146Z,10.87
2019-05-14T23:15:01.025Z,10.85
2019-05-14T23:17:34.251Z,11.07
2019-05-14T23:20:03.857Z,11.08
2019-05-14T23:22:38.852Z,2.39
2019-05-14T23:25:08.993Z,11.20
2019-05-14T23:27:39.301Z,11.12
2019-05-14T23:30:09.608Z,11.00
2019-05-14T23:32:38.785Z,11.04
2019-05-14T23:35:10.151Z,11.03
2019-05-14T23:37:42.385Z,11.17
2019-05-14T23:40:11.900Z,11.42
2019-05-14T23:42:40.933Z,11.59
2019-05-14T23:45:09.981Z,11.49
2019-05-14T23:47:39.068Z,11.49
2019-05-14T23:50:08.434Z,11.57
2019-05-14T23:52:38.681Z,11.44
2019-05-14T23:55:13.976Z,11.27
2019-05-14T23:57:48.125Z,11.14
